Home > Products > Valid Products > TAF

000
FTUS41 KAKQ 020339 AAA
TAFSBY
TAF AMD
KSBY 020339Z 0204/0224 18008KT P6SM VCTS SCT070CB BKN100
     FM020500 VRB03KT P6SM SCT070 BKN100
     FM021500 05006KT P6SM SKC=



000
FTUS41 KAKQ 020339 AAA
TAFSBY
TAF AMD
KSBY 020339Z 0204/0224 18008KT P6SM VCTS SCT070CB BKN100
     FM020500 VRB03KT P6SM SCT070 BKN100
     FM021500 05006KT P6SM SKC=



000
FTUS41 KAKQ 012340
TAFRIC
TAF
KRIC 012340Z 0200/0224 23006KT P6SM SCT250
     FM020400 33004KT P6SM SKC
     FM021400 03006KT P6SM SCT250=



000
FTUS41 KAKQ 012340
TAFECG
TAF
KECG 012340Z 0200/0224 15006KT P6SM SKC
     FM020300 20004KT P6SM SKC
     FM021400 VRB04KT P6SM SCT250=



000
FTUS41 KAKQ 012340
TAFSBY
TAF
KSBY 012340Z 0200/0224 24003KT P6SM SCT100
     FM020400 00000KT P6SM BKN100
     FM020900 01003KT P6SM SCT070 BKN100
     FM021500 05006KT P6SM SKC=



000
FTUS41 KAKQ 012340
TAFORF
TAF
KORF 012340Z 0200/0224 12005KT P6SM SKC
     FM020400 20003KT P6SM SKC
     FM021400 05006KT P6SM SCT250=



000
FTUS41 KAKQ 012340
TAFPHF
TAF
KPHF 012340Z 0200/0224 25007KT P6SM SKC
     FM020400 VRB04KT P6SM SCT100
     FM021400 03007KT P6SM FEW100 SCT250
     FM022000 07008KT P6SM SCT250=



000
FTUS41 KAKQ 012340
TAFRIC
TAF
KRIC 012340Z 0200/0224 23006KT P6SM SCT250
     FM020400 33004KT P6SM SKC
     FM021400 03006KT P6SM SCT250=



000
FTUS41 KAKQ 012340
TAFSBY
TAF
KSBY 012340Z 0200/0224 24003KT P6SM SCT100
     FM020400 00000KT P6SM BKN100
     FM020900 01003KT P6SM SCT070 BKN100
     FM021500 05006KT P6SM SKC=



000
FTUS41 KAKQ 012340
TAFPHF
TAF
KPHF 012340Z 0200/0224 25007KT P6SM SKC
     FM020400 VRB04KT P6SM SCT100
     FM021400 03007KT P6SM FEW100 SCT250
     FM022000 07008KT P6SM SCT250=



000
FTUS41 KAKQ 012340
TAFORF
TAF
KORF 012340Z 0200/0224 12005KT P6SM SKC
     FM020400 20003KT P6SM SKC
     FM021400 05006KT P6SM SCT250=



000
FTUS41 KAKQ 012340
TAFECG
TAF
KECG 012340Z 0200/0224 15006KT P6SM SKC
     FM020300 20004KT P6SM SKC
     FM021400 VRB04KT P6SM SCT250=



000
FTUS41 KAKQ 012032 AAA
TAFORF
TAF AMD
KORF 012032Z 0121/0218 10006KT P6SM BKN060
     FM012300 16008KT P6SM SCT070 SCT250
     FM021200 03005KT P6SM SCT100=



000
FTUS41 KAKQ 011929 AAA
TAFECG
TAF AMD
KECG 011929Z 0119/0218 15009KT P6SM SCT050
     FM020200 20005KT P6SM SCT070
     FM021200 30004KT 5SM BR SCT100=



000
FTUS41 KAKQ 011929 AAA
TAFECG
TAF AMD
KECG 011929Z 0119/0218 15009KT P6SM SCT050
     FM020200 20005KT P6SM SCT070
     FM021200 30004KT 5SM BR SCT100=



000
FTUS41 KAKQ 011727
TAFPHF
TAF
KPHF 011727Z 0118/0218 24009KT P6SM SKC
     FM012300 VRB05KT P6SM SCT100
     FM021200 01004KT P6SM FEW100 SCT250=



000
FTUS41 KAKQ 011727
TAFSBY
TAF
KSBY 011727Z 0118/0218 23008KT P6SM SCT050 SCT250
     FM012300 VRB03KT P6SM BKN060 BKN150
     FM021200 01003KT P6SM SCT070=



000
FTUS41 KAKQ 011727
TAFRIC
TAF
KRIC 011727Z 0118/0218 22011KT P6SM FEW060 SCT250
     FM012300 VRB04KT P6SM SCT100
     FM021200 35005KT P6SM FEW100 SCT250=



000
FTUS41 KAKQ 011727
TAFORF
TAF
KORF 011727Z 0118/0218 VRB04KT P6SM BKN070
     FM012000 16008KT P6SM SCT070 SCT250
     FM021200 03005KT P6SM SCT100=



000
FTUS41 KAKQ 011727
TAFECG
TAF
KECG 011727Z 0118/0218 14005KT P6SM FEW050
     FM012100 16007KT P6SM VCSH BKN050
     FM020000 20005KT P6SM SCT070
     FM021200 30004KT 5SM BR SCT100=



000
FTUS41 KAKQ 011727
TAFRIC
TAF
KRIC 011727Z 0118/0218 22011KT P6SM FEW060 SCT250
     FM012300 VRB04KT P6SM SCT100
     FM021200 35005KT P6SM FEW100 SCT250=



000
FTUS41 KAKQ 011727
TAFORF
TAF
KORF 011727Z 0118/0218 VRB04KT P6SM BKN070
     FM012000 16008KT P6SM SCT070 SCT250
     FM021200 03005KT P6SM SCT100=



000
FTUS41 KAKQ 011727
TAFSBY
TAF
KSBY 011727Z 0118/0218 23008KT P6SM SCT050 SCT250
     FM012300 VRB03KT P6SM BKN060 BKN150
     FM021200 01003KT P6SM SCT070=



000
FTUS41 KAKQ 011727
TAFPHF
TAF
KPHF 011727Z 0118/0218 24009KT P6SM SKC
     FM012300 VRB05KT P6SM SCT100
     FM021200 01004KT P6SM FEW100 SCT250=



000
FTUS41 KAKQ 011120
TAFRIC
TAF
KRIC 011120Z 0112/0212 VRB05KT P6SM SKC
     FM011700 25009KT P6SM SCT060
     FM012300 VRB04KT P6SM SCT100=



000
FTUS41 KAKQ 011120
TAFSBY
TAF
KSBY 011120Z 0112/0212 VRB05KT P6SM SKC
     FM011600 25010KT P6SM SCT050
     FM012300 22004KT P6SM BKN060 BKN150
     FM020900 01003KT P6SM SCT070=



000
FTUS41 KAKQ 011120
TAFORF
TAF
KORF 011120Z 0112/0212 VRB06KT P6SM SKC
     FM011600 21009KT P6SM SCT060
     FM012300 20006KT P6SM SCT100=



000
FTUS41 KAKQ 011120
TAFECG
TAF
KECG 011120Z 0112/0212 VRB05KT P6SM SKC
     FM011700 19008KT P6SM SCT050
     FM020000 20005KT P6SM SCT070=



000
FTUS41 KAKQ 011120
TAFSBY
TAF
KSBY 011120Z 0112/0212 VRB05KT P6SM SKC
     FM011600 25010KT P6SM SCT050
     FM012300 22004KT P6SM BKN060 BKN150
     FM020900 01003KT P6SM SCT070=



000
FTUS41 KAKQ 011120
TAFECG
TAF
KECG 011120Z 0112/0212 VRB05KT P6SM SKC
     FM011700 19008KT P6SM SCT050
     FM020000 20005KT P6SM SCT070=



000
FTUS41 KAKQ 011120
TAFORF
TAF
KORF 011120Z 0112/0212 VRB06KT P6SM SKC
     FM011600 21009KT P6SM SCT060
     FM012300 20006KT P6SM SCT100=



000
FTUS41 KAKQ 011120
TAFRIC
TAF
KRIC 011120Z 0112/0212 VRB05KT P6SM SKC
     FM011700 25009KT P6SM SCT060
     FM012300 VRB04KT P6SM SCT100=



000
FTUS41 KAKQ 011120
TAFPHF
TAF
KPHF 011120Z 0112/0212 VRB05KT P6SM SKC
     FM011600 23008KT P6SM SCT060
     FM012300 VRB05KT P6SM SCT100=



000
FTUS41 KAKQ 011120
TAFPHF
TAF
KPHF 011120Z 0112/0212 VRB05KT P6SM SKC
     FM011600 23008KT P6SM SCT060
     FM012300 VRB05KT P6SM SCT100=



000
FTUS41 KAKQ 010533
TAFPHF
TAF
KPHF 010533Z 0106/0206 VRB05KT P6SM SKC
     FM011600 23008KT P6SM SCT060
     FM012300 21005KT P6SM SCT100=



000
FTUS41 KAKQ 010533
TAFRIC
TAF
KRIC 010533Z 0106/0206 VRB05KT P6SM SKC
     FM011700 25009KT P6SM SCT060
     FM012300 VRB04KT P6SM SCT100=



000
FTUS41 KAKQ 010533
TAFECG
TAF
KECG 010533Z 0106/0206 VRB05KT P6SM SKC
     FM011700 19008KT P6SM SCT050
     FM020000 20005KT P6SM SCT090=



000
FTUS41 KAKQ 010533
TAFSBY
TAF
KSBY 010533Z 0106/0206 VRB05KT P6SM SKC
     FM011600 25010KT P6SM SCT050
     FM012300 22004KT P6SM BKN060 BKN150=



000
FTUS41 KAKQ 010533
TAFORF
TAF
KORF 010533Z 0106/0206 VRB06KT P6SM SKC
     FM011600 21009KT P6SM SCT060
     FM012300 20006KT P6SM SCT100=



000
FTUS41 KAKQ 312327
TAFORF
TAF
KORF 312327Z 0100/0124 13003KT P6SM SKC
     FM010500 21003KT P6SM SKC
     FM011500 24006KT P6SM SCT250=



000
FTUS41 KAKQ 312327
TAFSBY
TAF
KSBY 312327Z 0100/0124 VRB03KT P6SM SKC
     FM010800 21003KT P6SM SKC
     FM011500 26008KT P6SM SCT250=



000
FTUS41 KAKQ 312327
TAFRIC
TAF
KRIC 312327Z 0100/0124 VRB03KT P6SM SKC
     FM010600 19003KT P6SM SKC
     FM011500 26008KT P6SM SCT250=



000
FTUS41 KAKQ 312327
TAFPHF
TAF
KPHF 312327Z 0100/0124 00000KT P6SM SKC
     FM010500 21004KT P6SM SKC
     FM011500 25008KT P6SM SCT250=



000
FTUS41 KAKQ 312327
TAFECG
TAF
KECG 312327Z 0100/0124 12005KT P6SM SKC
     FM010600 20003KT P6SM SKC
     FM011400 21006KT P6SM SKC=



000
FTUS41 KAKQ 312327
TAFRIC
TAF
KRIC 312327Z 0100/0124 VRB03KT P6SM SKC
     FM010600 19003KT P6SM SKC
     FM011500 26008KT P6SM SCT250=



000
FTUS41 KAKQ 312327
TAFECG
TAF
KECG 312327Z 0100/0124 12005KT P6SM SKC
     FM010600 20003KT P6SM SKC
     FM011400 21006KT P6SM SKC=



000
FTUS41 KAKQ 312327
TAFORF
TAF
KORF 312327Z 0100/0124 13003KT P6SM SKC
     FM010500 21003KT P6SM SKC
     FM011500 24006KT P6SM SCT250=



000
FTUS41 KAKQ 312327
TAFPHF
TAF
KPHF 312327Z 0100/0124 00000KT P6SM SKC
     FM010500 21004KT P6SM SKC
     FM011500 25008KT P6SM SCT250=



000
FTUS41 KAKQ 312327
TAFSBY
TAF
KSBY 312327Z 0100/0124 VRB03KT P6SM SKC
     FM010800 21003KT P6SM SKC
     FM011500 26008KT P6SM SCT250=



000
FTUS41 KAKQ 312108 AAA
TAFECG
TAF AMD
KECG 312108Z 3121/0118 07008KT P6SM SCT035
     FM010000 13005KT P6SM SKC
     FM011400 21006KT P6SM SKC=



000
FTUS41 KAKQ 311720
TAFORF
TAF
KORF 311720Z 3118/0118 03010KT P6SM SCT035
     FM010000 19006KT P6SM SKC=



000
FTUS41 KAKQ 311720
TAFSBY
TAF
KSBY 311720Z 3118/0118 35009KT P6SM SCT040
     FM010000 VRB03KT P6SM SKC=



000
FTUS41 KAKQ 311720
TAFPHF
TAF
KPHF 311720Z 3118/0118 06006KT P6SM SCT035
     FM010000 20005KT P6SM SKC=



000
FTUS41 KAKQ 311720
TAFRIC
TAF
KRIC 311720Z 3118/0118 03006KT P6SM SCT050
     FM010000 VRB03KT P6SM SKC=



000
FTUS41 KAKQ 311720
TAFECG
TAF
KECG 311720Z 3118/0118 03011KT P6SM SCT035
     FM010000 19005KT P6SM SKC=



000
FTUS41 KAKQ 311524 AAA
TAFECG
TAF AMD
KECG 311524Z 3115/0112 36012KT P6SM BKN035
     FM311800 01011KT P6SM SCT040
     FM312300 09005KT P6SM SKC=



000
FTUS41 KAKQ 311127
TAFORF
TAF
KORF 311127Z 3112/0112 05007KT P6SM BKN120
     FM311400 03011KT P6SM SKC
     FM010200 VRB05KT P6SM SKC=



000
FTUS41 KAKQ 311127
TAFORF
TAF
KORF 311127Z 3112/0112 05007KT P6SM BKN120
     FM311400 03011KT P6SM SKC
     FM010200 VRB05KT P6SM SKC=



000
FTUS41 KAKQ 311127
TAFSBY
TAF
KSBY 311127Z 3112/0112 33008KT P6SM SCT050
     FM010200 VRB05KT P6SM SKC=



000
FTUS41 KAKQ 311127
TAFPHF
TAF
KPHF 311127Z 3112/0112 34005KT P6SM BKN150
     FM311500 01009KT P6SM SKC
     FM010200 VRB05KT P6SM SKC=



000
FTUS41 KAKQ 311127
TAFRIC
TAF
KRIC 311127Z 3112/0112 36010KT P6SM SCT060
     FM010200 VRB05KT P6SM SKC=



000
FTUS41 KAKQ 311127
TAFECG
TAF
KECG 311127Z 3112/0112 03012KT P6SM -RA BKN040
     FM311400 01011KT P6SM SCT040
     FM312300 09005KT P6SM SKC=



000
FTUS41 KAKQ 311127
TAFECG
TAF
KECG 311127Z 3112/0112 03012KT P6SM -RA BKN040
     FM311400 01011KT P6SM SCT040
     FM312300 09005KT P6SM SKC=



000
FTUS41 KAKQ 311127
TAFRIC
TAF
KRIC 311127Z 3112/0112 36010KT P6SM SCT060
     FM010200 VRB05KT P6SM SKC=



000
FTUS41 KAKQ 311127
TAFSBY
TAF
KSBY 311127Z 3112/0112 33008KT P6SM SCT050
     FM010200 VRB05KT P6SM SKC=



000
FTUS41 KAKQ 311127
TAFPHF
TAF
KPHF 311127Z 3112/0112 34005KT P6SM BKN150
     FM311500 01009KT P6SM SKC
     FM010200 VRB05KT P6SM SKC=



000
FTUS41 KAKQ 311047 AAA
TAFRIC
TAF AMD
KRIC 311047Z 3111/0106 01009G15KT P6SM OVC080
     FM311500 35009KT P6SM SCT060
     FM312300 23005KT P6SM SKC=



000
FTUS41 KAKQ 311047 AAA
TAFRIC
TAF AMD
KRIC 311047Z 3111/0106 01009G15KT P6SM OVC080
     FM311500 35009KT P6SM SCT060
     FM312300 23005KT P6SM SKC=



000
FTUS41 KAKQ 310931 AAD
TAFPHF
TAF AMD
KPHF 310931Z 3110/0106 04005KT P6SM SCT050 BKN150
     FM311500 01009KT P6SM SKC
     FM312300 VRB05KT P6SM SKC=



000
FTUS41 KAKQ 310931 AAD
TAFPHF
TAF AMD
KPHF 310931Z 3110/0106 04005KT P6SM SCT050 BKN150
     FM311500 01009KT P6SM SKC
     FM312300 VRB05KT P6SM SKC=



000
FTUS41 KAKQ 310856 AAC
TAFPHF
TAF AMD
KPHF 310856Z 3109/0106 05009G15KT 4SM -SHRA BR BKN040 OVC100
     FM311000 03007KT P6SM SCT250
     FM311500 01009KT P6SM SKC
     FM312300 VRB05KT P6SM SKC=



000
FTUS41 KAKQ 310847 AAB
TAFSBY
TAF AMD
KSBY 310847Z 3109/0106 33005KT P6SM SKC
     FM311600 32008KT P6SM SCT050
     FM312300 26005KT P6SM SKC=



000
FTUS41 KAKQ 310823 AAA
TAFECG
TAF AMD
KECG 310823Z 3108/0106 VRB04KT P6SM VCTS BKN050CB
      TEMPO 3110/3112 VRB09G15KT 2SM -TSRA BR SCT012 BKN025CB
     FM311200 34005KT P6SM BKN250
     FM311500 01009KT P6SM SCT040
     FM312300 09005KT P6SM SKC=



000
FTUS41 KAKQ 310823 AAA
TAFECG
TAF AMD
KECG 310823Z 3108/0106 VRB04KT P6SM VCTS BKN050CB
      TEMPO 3110/3112 VRB09G15KT 2SM -TSRA BR SCT012 BKN025CB
     FM311200 34005KT P6SM BKN250
     FM311500 01009KT P6SM SCT040
     FM312300 09005KT P6SM SKC=



000
FTUS41 KAKQ 310810 AAB
TAFORF
TAF AMD
KORF 310810Z 3108/0106 03009KT 4SM -RA VCTS SCT020 BKN035CB
      TEMPO 3108/3110 VRB12G20KT 2SM -TSRA BR BKN012 BKN025CB
     FM311000 35007KT P6SM SCT250
     FM311500 02011KT P6SM SKC
     FM312300 VRB05KT P6SM SKC=



000
FTUS41 KAKQ 310803 CCA
TAFPHF
TAF COR
KPHF 310803Z 3108/0106 01009G15KT 4SM -SHRA BR BKN040 OVC100
      TEMPO 3108/3109 2SM RA BR
     FM310900 01007KT P6SM SCT250
     FM311500 02009KT P6SM SKC=



000
FTUS41 KAKQ 310759 AAB
TAFPHF
TAF AMD
KPHF 310759Z 3108/0106 VRB04KT 2SM -SHRA VCTS BKN040CB OVC100
     FM310900 33005KT P6SM SCT250
     FM311500 02009KT P6SM SKC=



000
FTUS41 KAKQ 310720 AAA
TAFPHF
TAF AMD
KPHF 310720Z 3107/0106 VRB04KT 3SM -SHRA VCTS BKN040CB OVC100
     FM310800 33005KT P6SM SCT250
     FM311500 02009KT P6SM SKC=



000
FTUS41 KAKQ 310647 AAA
TAFORF
TAF AMD
KORF 310647Z 3107/0106 21009KT P6SM VCTS SCT020 BKN035CB
      TEMPO 3107/3109 4SM -TSRA BKN025CB
     FM311000 35007KT P6SM SCT250
     FM311500 02011KT P6SM SKC
     FM312300 VRB05KT P6SM SKC=



000
FTUS41 KAKQ 310608 AAA
TAFSBY
TAF AMD
KSBY 310608Z 3106/0106 VRB03KT 4SM BR SCT150
     FM311000 35005KT P6SM SKC
     FM311600 32008KT P6SM SCT050
     FM312300 26005KT P6SM SKC=



000
FTUS41 KAKQ 310608 AAA
TAFSBY
TAF AMD
KSBY 310608Z 3106/0106 VRB03KT 4SM BR SCT150
     FM311000 35005KT P6SM SKC
     FM311600 32008KT P6SM SCT050
     FM312300 26005KT P6SM SKC=



000
FTUS41 KAKQ 310537
TAFORF
TAF
KORF 310537Z 3106/0106 21009KT P6SM SCT040 BKN080
     FM311000 35007KT P6SM SCT250
     FM311500 02011KT P6SM SKC
     FM312300 VRB05KT P6SM SKC=



000
FTUS41 KAKQ 310537
TAFPHF
TAF
KPHF 310537Z 3106/0106 VRB04KT P6SM VCTS BKN025 BKN040CB OVC150
      TEMPO 3106/3107 2SM -TSRA BKN015 OVC040CB
     FM310800 33005KT P6SM SCT250
     FM311500 02009KT P6SM SKC=



000
FTUS41 KAKQ 310537
TAFRIC
TAF
KRIC 310537Z 3106/0106 01006KT P6SM BKN035 OVC080
     FM310700 36004KT P6SM BKN100
     FM311500 35009KT P6SM SCT060
     FM312300 23005KT P6SM SKC=



000
FTUS41 KAKQ 310537
TAFSBY
TAF
KSBY 310537Z 3106/0106 21004KT P6SM SCT040 BKN080
     FM310800 VRB03KT 4SM BR BKN150
     FM311200 35005KT P6SM SKC
     FM311600 32008KT P6SM SCT050
     FM312300 26005KT P6SM SKC=



000
FTUS41 KAKQ 310537
TAFECG
TAF
KECG 310537Z 3106/0106 21005KT P6SM BKN060
     FM311200 31005KT P6SM BKN250
     FM311500 36009KT P6SM SCT040
     FM312300 09005KT P6SM SKC=



000
FTUS41 KAKQ 310515 AAB
TAFPHF
TAF AMD
KPHF 310515Z 3105/3124 VRB04KT P6SM VCSH SCT050 BKN150
     FM310800 33005KT P6SM SCT250
     FM311500 02009KT P6SM SKC=



000
FTUS41 KAKQ 310514 AAB
TAFRIC
TAF AMD
KRIC 310514Z 3105/3124 01006KT P6SM BKN035 OVC080
     FM310700 36004KT P6SM BKN100
     FM311500 35009KT P6SM SCT060=



000
FTUS41 KAKQ 310412 AAA
TAFSBY
TAF AMD
KSBY 310412Z 3104/3124 21004KT P6SM SCT040 BKN080
     FM310800 VRB03KT 4SM BR BKN150
     FM311200 35005KT P6SM SKC
     FM311600 32008KT P6SM SCT050=



000
FTUS41 KAKQ 310151 AAA
TAFPHF
TAF AMD
KPHF 310151Z 3102/3124 VRB04KT P6SM SCT050 BKN150
     FM310900 33005KT P6SM SCT250
     FM311500 02009KT P6SM SKC=



000
FTUS41 KAKQ 310149 AAA
TAFRIC
TAF AMD
KRIC 310149Z 3102/3124 VRB04KT P6SM SCT080 BKN150
     FM310600 35005KT P6SM SKC
     FM311500 33008KT P6SM SCT050=



000
FTUS41 KAKQ 302354 CCA
TAFPHF
TAF COR
KPHF 302354Z 3100/3124 22005KT P6SM SCT050 BKN150
      TEMPO 3100/3101 VRB15KT 5SM -SHRA BKN050
     FM310900 33005KT P6SM SCT250
     FM311500 02009KT P6SM SKC=



000
FTUS41 KAKQ 302354 CCA
TAFPHF
TAF COR
KPHF 302354Z 3100/3124 22005KT P6SM SCT050 BKN150
      TEMPO 3100/3101 VRB15KT 5SM -SHRA BKN050
     FM310900 33005KT P6SM SCT250
     FM311500 02009KT P6SM SKC=



000
FTUS41 KAKQ 302340
TAFPHF
TAF
KPHF 302340Z 3100/3124 22005KT P6SM SCT050 BKN150
     FM310900 33005KT P6SM SCT250
     FM311500 02009KT P6SM SKC=



000
FTUS41 KAKQ 302340
TAFECG
TAF
KECG 302340Z 3100/3124 17008KT P6SM SCT250
     FM310400 22005KT P6SM BKN120
     FM311200 32005KT P6SM BKN250
     FM311500 36009KT P6SM SKC=



000
FTUS41 KAKQ 302340
TAFORF
TAF
KORF 302340Z 3100/3124 VRB04KT P6SM SCT040 BKN080
     FM310300 24006KT P6SM BKN080
     FM311000 35007KT P6SM SCT250
     FM311500 02008KT P6SM SKC=



000
FTUS41 KAKQ 302340
TAFRIC
TAF
KRIC 302340Z 3100/3124 20008KT P6SM VCSH SCT040 BKN120
      TEMPO 3101/3103 VRB15G25KT 5SM SHRA BKN040
     FM310300 24005KT P6SM SCT030 BKN080
     FM310600 35005KT P6SM SKC
     FM311500 33008KT P6SM SCT050=



000
FTUS41 KAKQ 302340
TAFSBY
TAF
KSBY 302340Z 3100/3124 21004KT P6SM SCT040 BKN080
     FM310400 VRB03KT 4SM BR BKN150
     FM310800 32003KT P6SM BKN150
     FM311200 35005KT P6SM SKC
     FM311600 32008KT P6SM SCT050=



000
FTUS41 KAKQ 302227 AAB
TAFRIC
TAF AMD
KRIC 302227Z 3022/3118 20008KT P6SM SCT040 BKN120
      TEMPO 3100/3102 VRB20G35KT 2SM TSRA BKN040CB
     FM310200 24005KT P6SM SCT030 BKN080
     FM310600 35005KT P6SM SKC=



000
FTUS41 KAKQ 302104 AAA
TAFPHF
TAF AMD
KPHF 302104Z 3021/3118 20007KT P6SM SCT050 BKN150
      TEMPO 3100/3102 VRB20KT 4SM SHRA BKN050 OVC080
     FM310200 23006KT P6SM SCT040 BKN100
     FM310900 33005KT P6SM BKN150=



000
FTUS41 KAKQ 302104 AAA
TAFPHF
TAF AMD
KPHF 302104Z 3021/3118 20007KT P6SM SCT050 BKN150
      TEMPO 3100/3102 VRB20KT 4SM SHRA BKN050 OVC080
     FM310200 23006KT P6SM SCT040 BKN100
     FM310900 33005KT P6SM BKN150=



000
FTUS41 KAKQ 302101 AAA
TAFSBY
TAF AMD
KSBY 302101Z 3021/3118 20010KT P6SM SCT035 BKN150
     FM302200 19006KT P6SM -SHRA SCT035 BKN080
      TEMPO 3022/3023 VRB25KT 3SM TSRA BR BKN035CB
     FM310000 19007KT P6SM BKN050 OVC100
     FM310500 32003KT 4SM BR BKN150
     FM311200 35005KT P6SM SKC=



000
FTUS41 KAKQ 302101 AAA
TAFSBY
TAF AMD
KSBY 302101Z 3021/3118 20010KT P6SM SCT035 BKN150
     FM302200 19006KT P6SM -SHRA SCT035 BKN080
      TEMPO 3022/3023 VRB25KT 3SM TSRA BR BKN035CB
     FM310000 19007KT P6SM BKN050 OVC100
     FM310500 32003KT 4SM BR BKN150
     FM311200 35005KT P6SM SKC=



000
FTUS41 KAKQ 302056 AAA
TAFRIC
TAF AMD
KRIC 302056Z 3021/3118 20008KT P6SM SCT040 BKN120
      TEMPO 3022/3023 VRB15KT 5SM SHRA BKN040
     FM310200 24005KT P6SM SCT030 BKN080
     FM310900 35005KT P6SM SKC=



000
FTUS41 KAKQ 301720
TAFRIC
TAF
KRIC 301720Z 3018/3118 20008KT P6SM SCT040 BKN120
      TEMPO 3020/3023 VRB25KT 3SM TSRA BR BKN040CB
     FM310000 24005KT P6SM SCT030 BKN080
     FM310900 35005KT P6SM SKC=



000
FTUS41 KAKQ 301720
TAFSBY
TAF
KSBY 301720Z 3018/3118 20010KT P6SM SCT035 BKN150
      TEMPO 3021/3024 VRB25KT 3SM TSRA BR BKN035CB
     FM310200 19007KT P6SM BKN050 OVC100
     FM310900 32003KT 4SM BR BKN150
     FM311200 35005KT P6SM SKC=



000
FTUS41 KAKQ 301720
TAFECG
TAF
KECG 301720Z 3018/3118 12007KT P6SM VCSH BKN040
     FM302100 17008KT P6SM SCT040 BKN150
     FM310400 22005KT P6SM BKN120
     FM311200 36008KT P6SM BKN250=



000
FTUS41 KAKQ 301720
TAFRIC
TAF
KRIC 301720Z 3018/3118 20008KT P6SM SCT040 BKN120
      TEMPO 3020/3023 VRB25KT 3SM TSRA BR BKN040CB
     FM310000 24005KT P6SM SCT030 BKN080
     FM310900 35005KT P6SM SKC=



000
FTUS41 KAKQ 301720
TAFSBY
TAF
KSBY 301720Z 3018/3118 20010KT P6SM SCT035 BKN150
      TEMPO 3021/3024 VRB25KT 3SM TSRA BR BKN035CB
     FM310200 19007KT P6SM BKN050 OVC100
     FM310900 32003KT 4SM BR BKN150
     FM311200 35005KT P6SM SKC=



000
FTUS41 KAKQ 301720
TAFORF
TAF
KORF 301720Z 3018/3118 VRB05KT P6SM SCT040
     FM302000 18008KT P6SM SCT040 BKN150
     FM310300 24006KT P6SM BKN080
     FM311000 36007KT P6SM BKN250=



000
FTUS41 KAKQ 301720
TAFPHF
TAF
KPHF 301720Z 3018/3118 18005KT P6SM SCT050 BKN150
      TEMPO 3022/3024 4SM TSRA BR BKN050CB
     FM310200 23006KT P6SM SCT040 BKN100
     FM310900 33005KT P6SM BKN150=



000
FTUS41 KAKQ 301120
TAFRIC
TAF
KRIC 301120Z 3012/3112 00000KT P6SM SCT150
     FM301500 20008KT P6SM SCT040 BKN150
     FM302000 21009KT P6SM VCTS BKN040CB OVC100
     FM310200 24004KT P6SM OVC100=



000
FTUS41 KAKQ 301120
TAFECG
TAF
KECG 301120Z 3012/3112 VRB03KT P6SM SKC
     FM301400 16009KT P6SM SCT250
     FM310400 21005KT P6SM BKN250=



000
FTUS41 KAKQ 301120
TAFSBY
TAF
KSBY 301120Z 3012/3112 17003KT P6SM SKC
     FM301500 21011KT P6SM SCT080 BKN150
     FM302200 19007KT P6SM VCSH BKN050 OVC100
     FM310900 32003KT 4SM BR SKC=



000
FTUS41 KAKQ 301120
TAFPHF
TAF
KPHF 301120Z 3012/3112 00000KT P6SM SCT250
     FM301800 18010KT P6SM SCT050 BKN100
     FM310300 21006KT P6SM OVC100
     FM310600 24005KT P6SM BKN250=



000
FTUS41 KAKQ 301120
TAFORF
TAF
KORF 301120Z 3012/3112 16004KT P6SM SCT250
     FM302000 18010KT P6SM SCT100 BKN250
     FM310700 24006KT P6SM OVC100=



000
FTUS41 KAKQ 300538
TAFSBY
TAF
KSBY 300538Z 3006/3106 22005KT P6SM BKN250
     FM301400 21011KT P6SM SCT100 BKN150
     FM302300 19007KT P6SM OVC150=



000
FTUS41 KAKQ 300538
TAFORF
TAF
KORF 300538Z 3006/3106 17010KT P6SM SKC
     FM301700 18010KT P6SM SCT100 BKN250
     FM310500 21006KT P6SM OVC100=



000
FTUS41 KAKQ 300538
TAFPHF
TAF
KPHF 300538Z 3006/3106 20007KT P6SM SCT250
     FM301500 18010KT P6SM SCT050 BKN100
     FM310300 21006KT P6SM OVC100=



000
FTUS41 KAKQ 300538
TAFECG
TAF
KECG 300538Z 3006/3106 16005KT P6SM SKC
     FM301400 18009KT P6SM SCT250
     FM310400 21005KT P6SM BKN250=



000
FTUS41 KAKQ 300538
TAFRIC
TAF
KRIC 300538Z 3006/3106 15003KT P6SM SCT250
     FM301400 20008KT P6SM SCT150 BKN250
     FM302000 21009KT P6SM BKN050 OVC100=



000
FTUS41 KAKQ 300538
TAFPHF
TAF
KPHF 300538Z 3006/3106 20007KT P6SM SCT250
     FM301500 18010KT P6SM SCT050 BKN100
     FM310300 21006KT P6SM OVC100=



000
FTUS41 KAKQ 300538
TAFSBY
TAF
KSBY 300538Z 3006/3106 22005KT P6SM BKN250
     FM301400 21011KT P6SM SCT100 BKN150
     FM302300 19007KT P6SM OVC150=



000
FTUS41 KAKQ 300538
TAFORF
TAF
KORF 300538Z 3006/3106 17010KT P6SM SKC
     FM301700 18010KT P6SM SCT100 BKN250
     FM310500 21006KT P6SM OVC100=



000
FTUS41 KAKQ 300538
TAFECG
TAF
KECG 300538Z 3006/3106 16005KT P6SM SKC
     FM301400 18009KT P6SM SCT250
     FM310400 21005KT P6SM BKN250=



000
FTUS41 KAKQ 300538
TAFRIC
TAF
KRIC 300538Z 3006/3106 15003KT P6SM SCT250
     FM301400 20008KT P6SM SCT150 BKN250
     FM302000 21009KT P6SM BKN050 OVC100=



    US Dept of Commerce
    National Oceanic and Atmospheric Administration
    National Weather Service
    1325 East West Highway
    Silver Spring, MD 20910
    Page Author: NWS Internet Services Team
Disclaimer
Information Quality
Credits
Glossary
Privacy Policy
Freedom of Information Act (FOIA)
About Us
Career Opportunities